createdAt,value
2023-04-07T00:00:16.282Z,23.40
2023-04-07T00:02:45.072Z,19.60
2023-04-07T00:05:13.498Z,19.10
2023-04-07T00:07:52.357Z,21.00
2023-04-07T00:10:25.687Z,21.05
2023-04-07T00:12:54.679Z,19.77
2023-04-07T00:15:23.169Z,20.27
2023-04-07T00:17:51.621Z,25.23
2023-04-07T00:20:19.696Z,25.02
2023-04-07T00:22:48.913Z,19.92
2023-04-07T00:25:17.406Z,23.95
2023-04-07T00:27:45.474Z,19.33
2023-04-07T00:30:15.740Z,24.25
2023-04-07T00:32:43.833Z,20.10
2023-04-07T00:35:14.108Z,24.02
2023-04-07T00:37:42.694Z,24.45
2023-04-07T00:40:11.164Z,20.85
2023-04-07T00:42:40.422Z,24.95
2023-04-07T00:45:10.299Z,20.85
2023-04-07T00:47:38.675Z,19.30
2023-04-07T00:50:08.244Z,18.63
2023-04-07T00:52:36.817Z,18.48
2023-04-07T00:55:06.269Z,18.80
2023-04-07T00:57:35.095Z,19.33
2023-04-07T01:00:04.307Z,19.23
2023-04-07T01:03:09.607Z,21.33
2023-04-07T01:06:01.514Z,19.58
2023-04-07T01:08:41.463Z,21.08
2023-04-07T01:11:30.859Z,18.13
2023-04-07T01:14:01.192Z,18.27
2023-04-07T01:16:55.165Z,19.55
2023-04-07T01:19:45.164Z,17.83
2023-04-07T01:22:18.086Z,17.85
2023-04-07T01:25:15.132Z,18.23
2023-04-07T01:28:02.746Z,17.60
2023-04-07T01:30:35.622Z,19.33
2023-04-07T01:33:06.557Z,20.00
2023-04-07T01:35:37.293Z,20.30
2023-04-07T01:38:06.703Z,23.58
2023-04-07T01:40:36.949Z,22.13
2023-04-07T01:43:06.704Z,23.65
2023-04-07T01:45:37.415Z,24.67
2023-04-07T01:48:07.854Z,21.90
2023-04-07T01:50:36.771Z,21.00
2023-04-07T01:53:06.285Z,18.63
2023-04-07T01:55:35.647Z,19.02
2023-04-07T01:58:08.182Z,17.65
2023-04-07T02:00:39.439Z,17.05
2023-04-07T02:03:22.325Z,21.00
2023-04-07T02:05:56.168Z,15.35
2023-04-07T02:08:31.162Z,19.75
2023-04-07T02:11:04.086Z,18.00
2023-04-07T02:13:38.933Z,18.23
2023-04-07T02:16:34.294Z,24.88
2023-04-07T02:19:03.767Z,21.17
2023-04-07T02:21:34.951Z,23.77
2023-04-07T02:24:06.691Z,20.05
2023-04-07T02:26:36.322Z,22.33
2023-04-07T02:29:05.296Z,23.73
2023-04-07T02:31:33.737Z,21.67
2023-04-07T02:34:02.489Z,22.98
2023-04-07T02:36:31.406Z,19.42
2023-04-07T02:39:00.497Z,19.33
2023-04-07T02:41:28.808Z,21.20
2023-04-07T02:43:57.441Z,20.52
2023-04-07T02:46:26.120Z,19.90
2023-04-07T02:48:54.544Z,21.38
2023-04-07T02:51:23.205Z,22.17
2023-04-07T02:53:51.661Z,23.05
2023-04-07T02:56:21.266Z,22.75
2023-04-07T02:58:49.281Z,25.40
2023-04-07T03:01:18.424Z,19.48
2023-04-07T03:03:48.092Z,22.88
2023-04-07T03:06:27.336Z,19.90
2023-04-07T03:09:10.155Z,17.00
2023-04-07T03:11:38.720Z,18.02
2023-04-07T03:14:07.304Z,15.15
2023-04-07T03:16:43.192Z,15.50
2023-04-07T03:19:14.209Z,16.70
2023-04-07T03:21:45.696Z,21.85
2023-04-07T03:24:14.051Z,15.25
2023-04-07T03:26:42.205Z,16.23
2023-04-07T03:29:20.104Z,14.77
2023-04-07T03:31:48.194Z,16.63
2023-04-07T03:34:19.589Z,13.75
2023-04-07T03:36:48.427Z,15.48
2023-04-07T03:39:17.075Z,17.92
2023-04-07T03:41:46.144Z,19.70
2023-04-07T03:44:14.898Z,22.33
2023-04-07T03:46:45.525Z,20.20
2023-04-07T03:49:14.839Z,21.73
2023-04-07T03:51:43.864Z,18.98
2023-04-07T03:54:16.603Z,15.23
2023-04-07T03:56:46.433Z,23.30
2023-04-07T03:59:17.224Z,24.42
2023-04-07T04:02:02.203Z,23.77
2023-04-07T04:04:30.684Z,22.75
2023-04-07T04:06:59.729Z,20.98
2023-04-07T04:09:54.090Z,23.05
2023-04-07T04:12:23.043Z,20.20
2023-04-07T04:15:02.788Z,21.98
2023-04-07T04:17:32.195Z,17.17
2023-04-07T04:20:01.425Z,17.75
2023-04-07T04:22:45.225Z,15.98
2023-04-07T04:25:13.964Z,14.40
2023-04-07T04:27:46.622Z,19.08
2023-04-07T04:30:22.212Z,19.90
2023-04-07T04:32:57.880Z,21.67
2023-04-07T04:35:35.008Z,22.75
2023-04-07T04:38:12.535Z,27.90
2023-04-07T04:40:45.162Z,25.45
2023-04-07T04:43:15.537Z,25.48
2023-04-07T04:45:44.487Z,21.65
2023-04-07T04:48:15.886Z,19.90
2023-04-07T04:50:45.041Z,21.80
2023-04-07T04:53:14.730Z,22.83
2023-04-07T04:55:59.276Z,23.73
2023-04-07T04:58:42.331Z,18.73
2023-04-07T05:01:15.820Z,19.77
2023-04-07T05:03:53.483Z,18.83
2023-04-07T05:06:25.549Z,19.67
2023-04-07T05:08:54.257Z,17.73
2023-04-07T05:11:27.021Z,16.93
2023-04-07T05:13:57.479Z,16.80
2023-04-07T05:16:26.569Z,18.17
2023-04-07T05:18:56.510Z,16.08
2023-04-07T05:21:27.354Z,20.20
2023-04-07T05:23:59.866Z,20.75
2023-04-07T05:26:28.880Z,20.63
2023-04-07T05:28:57.112Z,26.40
2023-04-07T05:31:27.765Z,24.05
2023-04-07T05:34:00.081Z,26.92
2023-04-07T05:36:35.383Z,22.35
2023-04-07T05:39:04.151Z,15.88
2023-04-07T05:41:33.985Z,16.65
2023-04-07T05:44:04.024Z,15.93
2023-04-07T05:46:35.923Z,16.05
2023-04-07T05:49:19.024Z,14.90
2023-04-07T05:51:52.476Z,17.40
2023-04-07T05:54:20.959Z,15.73
2023-04-07T05:56:50.812Z,11.50
2023-04-07T05:59:19.364Z,14.23
2023-04-07T06:01:47.600Z,9.77
2023-04-07T06:04:16.270Z,11.43
2023-04-07T06:06:47.499Z,20.77
2023-04-07T06:09:16.423Z,16.50
2023-04-07T06:11:45.185Z,16.73
2023-04-07T06:14:14.603Z,19.10
2023-04-07T06:16:43.290Z,17.20
2023-04-07T06:19:11.702Z,22.35
2023-04-07T06:21:40.529Z,18.27
2023-04-07T06:24:08.650Z,14.65
2023-04-07T06:26:37.167Z,12.07
2023-04-07T06:29:06.152Z,10.10
2023-04-07T06:31:34.513Z,12.00
2023-04-07T06:34:03.713Z,11.35
2023-04-07T06:36:33.922Z,11.48
2023-04-07T06:39:02.131Z,10.48
2023-04-07T06:41:32.092Z,10.52
2023-04-07T06:44:00.428Z,10.48
2023-04-07T06:46:28.707Z,12.55
2023-04-07T06:48:57.372Z,11.20
2023-04-07T06:51:26.538Z,14.68
2023-04-07T06:53:54.643Z,20.92
2023-04-07T06:56:24.119Z,20.35
2023-04-07T06:58:52.817Z,23.45
2023-04-07T07:01:20.940Z,21.73
2023-04-07T07:03:49.275Z,14.75
2023-04-07T07:06:17.687Z,15.10
2023-04-07T07:08:46.396Z,12.43
2023-04-07T07:11:15.519Z,15.43
2023-04-07T07:13:45.166Z,13.63
2023-04-07T07:16:13.343Z,15.63
2023-04-07T07:18:41.486Z,17.58
2023-04-07T07:21:10.402Z,10.27
2023-04-07T07:23:38.866Z,11.27
2023-04-07T07:26:07.799Z,12.75
2023-04-07T07:28:36.021Z,9.60
2023-04-07T07:31:15.252Z,10.13
2023-04-07T07:33:46.140Z,10.43
2023-04-07T07:36:15.631Z,10.50
2023-04-07T07:38:44.581Z,11.63
2023-04-07T07:41:12.935Z,12.23
2023-04-07T07:43:41.230Z,11.30
2023-04-07T07:46:10.669Z,13.50
2023-04-07T07:48:39.358Z,12.77
2023-04-07T07:51:08.066Z,11.23
2023-04-07T07:53:36.455Z,12.77
2023-04-07T07:56:04.556Z,9.10
2023-04-07T07:58:33.500Z,11.50
2023-04-07T08:01:02.461Z,10.77
2023-04-07T08:03:31.487Z,10.07
2023-04-07T08:06:01.233Z,11.23
2023-04-07T08:08:29.301Z,10.10
2023-04-07T08:10:57.727Z,7.35
2023-04-07T08:13:25.741Z,7.53
2023-04-07T08:15:54.774Z,8.52
2023-04-07T08:18:23.389Z,8.98
2023-04-07T08:20:51.819Z,10.15
2023-04-07T08:23:20.346Z,10.82
2023-04-07T08:25:49.355Z,11.35
2023-04-07T08:28:18.019Z,10.68
2023-04-07T08:30:46.032Z,14.00
2023-04-07T08:33:14.113Z,11.50
2023-04-07T08:35:42.688Z,11.30
2023-04-07T08:38:11.286Z,12.40
2023-04-07T08:40:40.376Z,8.88
2023-04-07T08:43:10.959Z,8.85
2023-04-07T08:45:42.365Z,8.75
2023-04-07T08:48:18.148Z,8.30
2023-04-07T08:50:46.709Z,8.32
2023-04-07T08:53:21.254Z,8.65
2023-04-07T08:55:50.116Z,8.57
2023-04-07T08:58:20.479Z,8.07
2023-04-07T09:00:49.433Z,9.23
2023-04-07T09:03:18.273Z,10.27
2023-04-07T09:05:46.657Z,7.03
2023-04-07T09:08:15.390Z,9.75
2023-04-07T09:10:43.517Z,6.75
2023-04-07T09:13:16.027Z,8.50
2023-04-07T09:15:44.456Z,7.30
2023-04-07T09:18:14.883Z,8.07
2023-04-07T09:21:03.959Z,8.48
2023-04-07T09:23:34.811Z,8.23
2023-04-07T09:26:21.506Z,9.52
2023-04-07T09:28:53.713Z,7.57
2023-04-07T09:31:45.229Z,7.57
2023-04-07T09:34:42.880Z,9.75
2023-04-07T09:37:23.325Z,8.50
2023-04-07T09:39:54.225Z,9.25
2023-04-07T09:42:22.562Z,7.65
2023-04-07T09:44:52.683Z,10.73
2023-04-07T09:47:29.442Z,10.50
2023-04-07T09:49:59.792Z,8.13
2023-04-07T09:52:52.622Z,8.32
2023-04-07T09:55:24.689Z,7.03
2023-04-07T09:57:55.537Z,9.32
2023-04-07T10:00:24.936Z,8.13
2023-04-07T10:02:53.705Z,8.50
2023-04-07T10:05:22.933Z,8.60
2023-04-07T10:07:51.673Z,9.52
2023-04-07T10:10:20.455Z,10.27
2023-04-07T10:12:50.785Z,7.22
2023-04-07T10:15:19.718Z,9.85
2023-04-07T10:17:49.609Z,9.13
2023-04-07T10:20:21.527Z,8.40
2023-04-07T10:22:52.728Z,9.00
2023-04-07T10:25:25.027Z,8.10
2023-04-07T10:28:03.341Z,9.67
2023-04-07T10:30:33.680Z,9.38
2023-04-07T10:33:02.708Z,10.73
2023-04-07T10:36:05.304Z,7.93
2023-04-07T10:38:34.550Z,7.35
2023-04-07T10:41:38.348Z,7.32
2023-04-07T10:46:45.681Z,8.55
2023-04-07T10:49:18.755Z,10.45
2023-04-07T10:52:13.374Z,7.40
2023-04-07T10:54:41.771Z,6.55
2023-04-07T10:57:17.212Z,7.20
2023-04-07T11:00:12.823Z,7.63
2023-04-07T11:02:41.630Z,9.35
2023-04-07T11:05:21.850Z,8.85
2023-04-07T11:07:53.643Z,7.20
2023-04-07T11:10:23.167Z,7.72
2023-04-07T11:13:08.043Z,7.57
2023-04-07T11:15:40.475Z,9.07
2023-04-07T11:18:20.202Z,7.47
2023-04-07T11:20:53.806Z,8.40
2023-04-07T11:23:25.526Z,9.75
2023-04-07T11:26:03.528Z,8.30
2023-04-07T11:28:33.128Z,10.13
2023-04-07T11:31:01.266Z,9.88
2023-04-07T11:33:32.366Z,8.05
2023-04-07T11:36:03.429Z,10.35
2023-04-07T11:38:38.001Z,9.15
2023-04-07T11:41:16.340Z,12.68
2023-04-07T11:43:44.759Z,9.05
2023-04-07T11:46:15.786Z,9.70
2023-04-07T11:48:45.783Z,7.88
2023-04-07T11:51:19.887Z,9.73
2023-04-07T11:53:54.860Z,8.65
2023-04-07T11:56:23.772Z,8.93
2023-04-07T11:58:56.243Z,7.13
2023-04-07T12:01:39.126Z,9.27
2023-04-07T12:04:12.516Z,8.05
2023-04-07T12:06:42.753Z,8.88
2023-04-07T12:09:28.021Z,8.80
2023-04-07T12:11:57.896Z,7.55
2023-04-07T12:14:27.998Z,9.48
2023-04-07T12:16:58.403Z,7.53
2023-04-07T12:19:30.870Z,7.57
2023-04-07T12:21:59.308Z,9.00
2023-04-07T12:24:28.759Z,8.40
2023-04-07T12:26:58.334Z,7.53
2023-04-07T12:29:26.274Z,7.30
2023-04-07T12:31:54.968Z,8.85
2023-04-07T12:34:23.680Z,6.85
2023-04-07T12:36:51.764Z,6.82
2023-04-07T12:39:20.389Z,7.03
2023-04-07T12:41:49.595Z,7.72
2023-04-07T12:44:17.656Z,7.70
2023-04-07T12:46:47.042Z,5.88
2023-04-07T12:49:15.102Z,7.78
2023-04-07T12:51:43.141Z,7.55
2023-04-07T12:54:11.595Z,7.07
2023-04-07T12:56:41.935Z,6.10
2023-04-07T12:59:10.049Z,6.32
2023-04-07T13:01:39.546Z,7.72
2023-04-07T13:04:08.519Z,6.25
2023-04-07T13:06:36.899Z,8.60
2023-04-07T13:09:05.389Z,6.38
2023-04-07T13:11:33.498Z,7.22
2023-04-07T13:14:02.110Z,6.53
2023-04-07T13:16:30.986Z,6.35
2023-04-07T13:18:59.476Z,6.93
2023-04-07T13:21:45.464Z,7.20
2023-04-07T13:24:16.638Z,7.97
2023-04-07T13:26:45.580Z,6.95
2023-04-07T13:29:14.483Z,6.28
2023-04-07T13:31:43.788Z,6.97
2023-04-07T13:34:12.678Z,7.20
2023-04-07T13:36:42.282Z,6.13
2023-04-07T13:39:10.865Z,8.45
2023-04-07T13:41:39.417Z,7.38
2023-04-07T13:44:07.849Z,7.60
2023-04-07T13:46:35.837Z,7.28
2023-04-07T13:49:04.937Z,7.00
2023-04-07T13:51:33.055Z,5.57
2023-04-07T13:54:01.131Z,7.95
2023-04-07T13:56:29.253Z,6.60
2023-04-07T13:58:57.217Z,9.75
2023-04-07T14:01:25.547Z,6.45
2023-04-07T14:03:53.957Z,8.35
2023-04-07T14:06:23.143Z,8.60
2023-04-07T14:08:51.655Z,7.40
2023-04-07T14:11:20.005Z,8.00
2023-04-07T14:13:49.819Z,7.60
2023-04-07T14:16:18.973Z,7.07
2023-04-07T14:18:49.536Z,8.57
2023-04-07T14:21:17.795Z,6.18
2023-04-07T14:23:45.850Z,6.70
2023-04-07T14:26:14.381Z,6.85
2023-04-07T14:28:43.286Z,7.35
2023-04-07T14:31:16.249Z,6.70
2023-04-07T14:36:16.905Z,7.97
2023-04-07T14:38:45.482Z,8.77
2023-04-07T14:41:14.450Z,8.90
2023-04-07T14:43:43.710Z,9.70
2023-04-07T14:46:12.973Z,5.18
2023-04-07T14:48:41.247Z,8.55
2023-04-07T14:51:13.584Z,6.95
2023-04-07T14:53:43.824Z,9.35
2023-04-07T14:56:13.678Z,5.93
2023-04-07T14:58:41.756Z,5.68
2023-04-07T15:01:10.695Z,7.70
2023-04-07T15:03:39.234Z,7.35
2023-04-07T15:06:09.063Z,9.75
2023-04-07T15:08:37.624Z,9.75
2023-04-07T15:11:09.944Z,10.85
2023-04-07T15:13:38.438Z,7.23
2023-04-07T15:16:14.028Z,7.47
2023-04-07T15:18:45.031Z,5.32
2023-04-07T15:21:15.390Z,5.75
2023-04-07T15:23:43.554Z,4.72
2023-04-07T15:26:12.494Z,5.03
2023-04-07T15:28:40.897Z,6.70
2023-04-07T15:31:10.086Z,6.78
2023-04-07T15:33:40.114Z,5.60
2023-04-07T15:36:09.533Z,6.47
2023-04-07T15:38:39.565Z,6.32
2023-04-07T15:41:08.438Z,5.95
2023-04-07T15:43:37.641Z,7.75
2023-04-07T15:46:06.596Z,5.85
2023-04-07T15:48:34.766Z,6.80
2023-04-07T15:51:03.794Z,6.20
2023-04-07T15:53:32.850Z,4.55
2023-04-07T15:56:01.540Z,6.20
2023-04-07T15:58:31.471Z,5.80
2023-04-07T16:01:00.791Z,6.45
2023-04-07T16:03:30.022Z,5.25
2023-04-07T16:05:58.765Z,8.60
2023-04-07T16:08:26.904Z,4.68
2023-04-07T16:10:55.689Z,5.72
2023-04-07T16:13:23.827Z,8.20
2023-04-07T16:16:00.223Z,5.43
2023-04-07T16:18:30.255Z,7.10
2023-04-07T16:20:58.818Z,7.07
2023-04-07T16:23:27.106Z,5.30
2023-04-07T16:25:55.700Z,5.72
2023-04-07T16:28:23.780Z,7.63
2023-04-07T16:30:52.878Z,8.02
2023-04-07T16:33:21.012Z,8.73
2023-04-07T16:35:51.248Z,6.45
2023-04-07T16:38:19.920Z,4.55
2023-04-07T16:41:00.601Z,8.52
2023-04-07T16:43:32.269Z,5.32
2023-04-07T16:46:00.683Z,4.78
2023-04-07T16:48:29.273Z,5.68
2023-04-07T16:50:57.290Z,5.40
2023-04-07T16:53:26.088Z,6.07
2023-04-07T16:55:54.713Z,6.13
2023-04-07T16:58:22.797Z,5.00
2023-04-07T17:00:50.899Z,6.35
2023-04-07T17:03:19.637Z,4.45
2023-04-07T17:05:49.544Z,6.50
2023-04-07T17:08:17.755Z,5.25
2023-04-07T17:10:46.604Z,5.30
2023-04-07T17:13:14.517Z,9.27
2023-04-07T17:15:42.581Z,6.57
2023-04-07T17:18:11.192Z,6.30
2023-04-07T17:20:40.571Z,9.95
2023-04-07T17:23:10.468Z,5.72
2023-04-07T17:25:39.314Z,6.72
2023-04-07T17:28:07.798Z,10.30
2023-04-07T17:30:37.703Z,7.32
2023-04-07T17:33:08.320Z,7.45
2023-04-07T17:35:36.936Z,7.22
2023-04-07T17:38:06.851Z,8.02
2023-04-07T17:40:35.258Z,6.68
2023-04-07T17:43:03.731Z,6.38
2023-04-07T17:45:32.058Z,6.40
2023-04-07T17:48:01.826Z,8.13
2023-04-07T17:50:32.368Z,6.88
2023-04-07T17:53:01.154Z,7.90
2023-04-07T17:55:29.312Z,11.18
2023-04-07T17:58:01.001Z,6.28
2023-04-07T18:00:30.680Z,8.32
2023-04-07T18:03:00.145Z,8.55
2023-04-07T18:05:31.295Z,7.00
2023-04-07T18:07:59.847Z,6.97
2023-04-07T18:10:29.867Z,8.35
2023-04-07T18:12:58.626Z,8.55
2023-04-07T18:15:27.965Z,9.05
2023-04-07T18:17:56.525Z,9.93
2023-04-07T18:20:24.800Z,6.60
2023-04-07T18:22:55.592Z,8.73
2023-04-07T18:25:24.322Z,7.88
2023-04-07T18:27:53.503Z,7.88
2023-04-07T18:30:21.930Z,6.80
2023-04-07T18:32:50.086Z,16.30
2023-04-07T18:35:18.644Z,8.05
2023-04-07T18:37:47.377Z,9.15
2023-04-07T18:40:16.788Z,10.60
2023-04-07T18:42:44.964Z,10.80
2023-04-07T18:45:13.320Z,13.68
2023-04-07T18:47:41.636Z,13.52
2023-04-07T18:50:10.791Z,13.68
2023-04-07T18:52:39.652Z,15.90
2023-04-07T18:55:09.244Z,12.70
2023-04-07T18:57:39.653Z,11.27
2023-04-07T19:00:08.830Z,12.07
2023-04-07T19:02:44.385Z,11.50
2023-04-07T19:05:12.982Z,13.45
2023-04-07T19:07:42.044Z,12.20
2023-04-07T19:10:10.193Z,11.45
2023-04-07T19:12:38.681Z,10.93
2023-04-07T19:15:07.584Z,11.85
2023-04-07T19:17:37.427Z,12.07
2023-04-07T19:20:07.115Z,20.23
2023-04-07T19:22:36.401Z,9.90
2023-04-07T19:25:04.852Z,13.23
2023-04-07T19:27:33.475Z,12.05
2023-04-07T19:30:02.161Z,11.90
2023-04-07T19:32:31.611Z,13.27
2023-04-07T19:34:59.927Z,14.90
2023-04-07T19:37:29.272Z,11.90
2023-04-07T19:40:02.861Z,8.32
2023-04-07T19:42:32.477Z,9.27
2023-04-07T19:45:02.422Z,10.38
2023-04-07T19:47:31.766Z,9.00
2023-04-07T19:50:00.488Z,10.82
2023-04-07T19:52:32.161Z,11.07
2023-04-07T19:55:01.684Z,12.30
2023-04-07T19:57:31.605Z,11.00
2023-04-07T20:00:00.092Z,16.17
2023-04-07T20:02:28.602Z,22.75
2023-04-07T20:04:58.477Z,23.67
2023-04-07T20:07:27.347Z,35.60
2023-04-07T20:09:57.395Z,28.13
2023-04-07T20:12:25.715Z,20.92
2023-04-07T20:14:54.200Z,18.38
2023-04-07T20:17:22.624Z,19.30
2023-04-07T20:19:55.769Z,16.33
2023-04-07T20:22:24.301Z,17.83
2023-04-07T20:24:52.798Z,14.88
2023-04-07T20:27:21.551Z,17.17
2023-04-07T20:29:51.098Z,17.10
2023-04-07T20:32:19.727Z,17.95
2023-04-07T20:34:48.484Z,14.88
2023-04-07T20:37:17.327Z,15.88
2023-04-07T20:39:46.052Z,14.48
2023-04-07T20:42:14.978Z,15.52
2023-04-07T20:44:43.593Z,18.52
2023-04-07T20:47:12.801Z,14.15
2023-04-07T20:49:43.651Z,18.70
2023-04-07T20:52:11.788Z,14.95
2023-04-07T20:54:42.748Z,20.55
2023-04-07T20:57:11.721Z,21.88
2023-04-07T20:59:40.062Z,19.83
2023-04-07T21:02:09.059Z,20.52
2023-04-07T21:04:37.811Z,19.15
2023-04-07T21:07:06.477Z,20.38
2023-04-07T21:09:34.445Z,22.02
2023-04-07T21:12:03.920Z,15.32
2023-04-07T21:14:32.418Z,19.05
2023-04-07T21:17:00.695Z,20.63
2023-04-07T21:19:28.866Z,17.25
2023-04-07T21:21:56.885Z,17.35
2023-04-07T21:24:26.017Z,15.05
2023-04-07T21:26:55.152Z,14.02
2023-04-07T21:29:23.303Z,15.38
2023-04-07T21:32:16.288Z,12.18
2023-04-07T21:34:45.200Z,19.83
2023-04-07T21:37:13.817Z,24.83
2023-04-07T21:39:42.434Z,26.00
2023-04-07T21:42:10.377Z,17.52
2023-04-07T21:44:39.123Z,16.30
2023-04-07T21:47:08.129Z,11.63
2023-04-07T21:49:38.635Z,14.50
2023-04-07T21:52:07.871Z,20.10
2023-04-07T21:54:36.666Z,19.17
2023-04-07T21:57:04.861Z,17.20
2023-04-07T21:59:35.526Z,22.90
2023-04-07T22:02:04.599Z,16.13
2023-04-07T22:04:33.352Z,20.88
2023-04-07T22:07:02.043Z,18.48
2023-04-07T22:09:30.013Z,27.45
2023-04-07T22:11:58.566Z,29.88
2023-04-07T22:14:26.645Z,22.80
2023-04-07T22:16:55.830Z,23.85
2023-04-07T22:19:26.459Z,23.38
2023-04-07T22:21:54.821Z,22.85
2023-04-07T22:24:23.090Z,20.80
2023-04-07T22:26:53.984Z,13.88
2023-04-07T22:29:22.968Z,14.05
2023-04-07T22:31:51.084Z,16.05
2023-04-07T22:34:19.833Z,14.18
2023-04-07T22:36:48.036Z,17.75
2023-04-07T22:39:16.500Z,12.45
2023-04-07T22:41:44.680Z,13.80
2023-04-07T22:44:12.637Z,13.50
2023-04-07T22:46:40.619Z,11.80
2023-04-07T22:49:09.143Z,13.60
2023-04-07T22:51:38.038Z,10.55
2023-04-07T22:54:06.836Z,16.05
2023-04-07T22:56:35.470Z,9.95
2023-04-07T22:59:05.985Z,10.10
2023-04-07T23:01:34.340Z,7.85
2023-04-07T23:04:03.221Z,10.63
2023-04-07T23:06:32.259Z,10.00
2023-04-07T23:09:00.571Z,11.38
2023-04-07T23:11:28.523Z,13.63
2023-04-07T23:13:57.187Z,12.38
2023-04-07T23:16:26.520Z,10.60
2023-04-07T23:18:54.980Z,8.13
2023-04-07T23:21:23.608Z,8.00
2023-04-07T23:23:51.829Z,10.15
2023-04-07T23:26:19.971Z,8.70
2023-04-07T23:28:48.794Z,9.82
2023-04-07T23:31:17.693Z,11.00
2023-04-07T23:33:48.061Z,14.68
2023-04-07T23:36:16.178Z,15.45
2023-04-07T23:38:44.207Z,18.58
2023-04-07T23:41:12.743Z,18.15
2023-04-07T23:43:41.207Z,13.18
2023-04-07T23:46:10.263Z,19.08
2023-04-07T23:48:38.290Z,19.10
2023-04-07T23:51:07.052Z,16.80
2023-04-07T23:53:35.625Z,13.65
2023-04-07T23:56:04.173Z,17.30
2023-04-07T23:58:32.383Z,14.10
